createdAt,value
2018-07-23T00:02:16.138Z,-46
2018-07-23T00:04:43.187Z,-46
2018-07-23T00:07:10.218Z,-46
2018-07-23T00:09:37.205Z,-46
2018-07-23T00:12:10.960Z,-46
2018-07-23T00:14:37.939Z,-46
2018-07-23T00:17:05.000Z,-46
2018-07-23T00:19:32.012Z,-46
2018-07-23T00:21:59.097Z,-46
2018-07-23T00:24:26.094Z,-46
2018-07-23T00:26:53.093Z,-46
2018-07-23T00:29:20.305Z,-46
2018-07-23T00:31:47.269Z,-46
2018-07-23T00:34:14.276Z,-46
2018-07-23T00:36:41.273Z,-47
2018-07-23T00:39:08.637Z,-47
2018-07-23T00:41:35.989Z,-46
2018-07-23T00:44:03.980Z,-47
2018-07-23T00:46:31.105Z,-47
2018-07-23T00:48:58.065Z,-46
2018-07-23T00:51:25.045Z,-46
2018-07-23T00:53:52.037Z,-46
2018-07-23T00:56:19.048Z,-46
2018-07-23T00:58:46.021Z,-46
2018-07-23T01:01:13.014Z,-46
2018-07-23T01:03:40.021Z,-46
2018-07-23T01:06:07.000Z,-46
2018-07-23T01:08:33.997Z,-47
2018-07-23T01:11:00.973Z,-46
2018-07-23T01:13:28.017Z,-46
2018-07-23T01:15:55.014Z,-47
2018-07-23T01:18:22.052Z,-46
2018-07-23T01:20:49.028Z,-46
2018-07-23T01:23:16.121Z,-46
2018-07-23T01:25:43.120Z,-45
2018-07-23T01:28:10.081Z,-46
2018-07-23T01:30:37.117Z,-46
2018-07-23T01:33:04.072Z,-46
2018-07-23T01:35:31.077Z,-46
2018-07-23T01:37:58.065Z,-46
2018-07-23T01:40:25.021Z,-46
2018-07-23T01:42:52.062Z,-46
2018-07-23T01:45:19.026Z,-46
2018-07-23T01:47:46.002Z,-46
2018-07-23T01:50:13.029Z,-47
2018-07-23T01:52:40.017Z,-47
2018-07-23T01:55:07.276Z,-46
2018-07-23T01:57:34.232Z,-46
2018-07-23T02:00:01.446Z,-46
2018-07-23T02:02:29.170Z,-46
2018-07-23T02:04:56.180Z,-46
2018-07-23T02:07:23.158Z,-46
2018-07-23T02:09:50.121Z,-47
2018-07-23T02:12:17.124Z,-46
2018-07-23T02:14:44.148Z,-46
2018-07-23T02:17:11.127Z,-46
2018-07-23T02:19:38.114Z,-46
2018-07-23T02:22:05.128Z,-47
2018-07-23T02:24:32.182Z,-46
2018-07-23T02:26:59.169Z,-46
2018-07-23T02:29:26.497Z,-46
2018-07-23T02:31:53.452Z,-46
2018-07-23T02:34:20.456Z,-46
2018-07-23T02:36:47.595Z,-46
2018-07-23T02:39:14.597Z,-46
2018-07-23T02:41:41.565Z,-46
2018-07-23T02:44:08.545Z,-46
2018-07-23T02:46:35.505Z,-46
2018-07-23T02:49:02.550Z,-46
2018-07-23T02:51:29.510Z,-46
2018-07-23T02:53:56.537Z,-46
2018-07-23T02:56:23.541Z,-46
2018-07-23T02:58:50.553Z,-47
2018-07-23T03:01:17.526Z,-46
2018-07-23T03:03:44.508Z,-46
2018-07-23T03:06:11.474Z,-46
2018-07-23T03:08:38.469Z,-46
2018-07-23T03:11:05.457Z,-47
2018-07-23T03:13:32.472Z,-47
2018-07-23T03:15:59.424Z,-46
2018-07-23T03:18:26.412Z,-46
2018-07-23T03:20:53.425Z,-46
2018-07-23T03:23:20.409Z,-46
2018-07-23T03:25:47.497Z,-46
2018-07-23T03:28:14.475Z,-46
2018-07-23T03:30:41.498Z,-46
2018-07-23T03:33:09.025Z,-46
2018-07-23T03:35:36.165Z,-46
2018-07-23T03:38:03.177Z,-46
2018-07-23T03:40:30.177Z,-46
2018-07-23T03:42:57.128Z,-46
2018-07-23T03:45:24.281Z,-46
2018-07-23T03:47:51.249Z,-46
2018-07-23T03:50:18.274Z,-46
2018-07-23T03:52:45.304Z,-46
2018-07-23T03:55:12.293Z,-46
2018-07-23T03:57:39.356Z,-46
2018-07-23T04:00:06.345Z,-47
2018-07-23T04:02:33.324Z,-47
2018-07-23T04:05:00.325Z,-46
2018-07-23T04:07:27.337Z,-47
2018-07-23T04:09:54.343Z,-47
2018-07-23T04:12:21.480Z,-48
2018-07-23T04:14:48.445Z,-45
2018-07-23T04:17:15.424Z,-47
2018-07-23T04:19:42.510Z,-47
2018-07-23T04:22:09.508Z,-46
2018-07-23T04:24:36.496Z,-47
2018-07-23T04:27:03.488Z,-47
2018-07-23T04:29:30.487Z,-46
2018-07-23T04:31:57.496Z,-46
2018-07-23T04:34:24.660Z,-47
2018-07-23T04:36:51.680Z,-46
2018-07-23T04:39:18.673Z,-46
2018-07-23T04:41:45.681Z,-47
2018-07-23T04:44:12.809Z,-47
2018-07-23T04:46:39.882Z,-46
2018-07-23T04:49:06.857Z,-47
2018-07-23T04:51:33.958Z,-46
2018-07-23T04:54:01.277Z,-47
2018-07-23T04:56:28.248Z,-47
2018-07-23T04:58:55.241Z,-47
2018-07-23T05:01:22.377Z,-47
2018-07-23T05:03:49.342Z,-47
2018-07-23T05:06:16.297Z,-48
2018-07-23T05:08:43.300Z,-46
2018-07-23T05:11:10.306Z,-46
2018-07-23T05:13:37.300Z,-46
2018-07-23T05:16:04.302Z,-46
2018-07-23T05:18:31.260Z,-47
2018-07-23T05:20:58.693Z,-46
2018-07-23T05:23:26.725Z,-46
2018-07-23T05:25:53.721Z,-47
2018-07-23T05:28:20.729Z,-47
2018-07-23T05:30:47.706Z,-47
2018-07-23T05:33:14.961Z,-46
2018-07-23T05:35:41.932Z,-47
2018-07-23T05:38:08.922Z,-47
2018-07-23T05:40:35.952Z,-47
2018-07-23T05:43:03.121Z,-46
2018-07-23T05:45:30.229Z,-47
2018-07-23T05:47:57.190Z,-47
2018-07-23T05:50:24.252Z,-46
2018-07-23T05:52:51.257Z,-47
2018-07-23T05:55:18.293Z,-47
2018-07-23T05:57:45.317Z,-47
2018-07-23T06:00:12.307Z,-46
2018-07-23T06:02:39.280Z,-46
2018-07-23T06:05:06.605Z,-46
2018-07-23T06:07:33.619Z,-47
2018-07-23T06:10:00.765Z,-47
2018-07-23T06:12:27.756Z,-46
2018-07-23T06:14:54.773Z,-46
2018-07-23T06:17:21.819Z,-46
2018-07-23T06:19:48.840Z,-47
2018-07-23T06:22:16.081Z,-47
2018-07-23T06:24:43.056Z,-47
2018-07-23T06:27:10.895Z,-46
2018-07-23T06:29:37.973Z,-47
2018-07-23T06:32:05.405Z,-47
2018-07-23T06:34:32.395Z,-46
2018-07-23T06:36:59.768Z,-46
2018-07-23T06:39:27.396Z,-46
2018-07-23T06:41:54.374Z,-46
2018-07-23T06:44:21.365Z,-46
2018-07-23T06:46:48.429Z,-47
2018-07-23T06:49:15.439Z,-46
2018-07-23T06:51:42.457Z,-46
2018-07-23T06:54:09.450Z,-47
2018-07-23T06:56:36.457Z,-46
2018-07-23T06:59:03.473Z,-46
2018-07-23T07:01:30.517Z,-46
2018-07-23T07:03:57.521Z,-46
2018-07-23T07:06:24.593Z,-47
2018-07-23T07:08:51.561Z,-46
2018-07-23T07:11:18.678Z,-47
2018-07-23T07:13:45.650Z,-46
2018-07-23T07:16:12.625Z,-46
2018-07-23T07:18:39.674Z,-47
2018-07-23T07:21:07.036Z,-46
2018-07-23T07:23:34.012Z,-53
2018-07-23T07:26:01.040Z,-52
2018-07-23T07:28:28.034Z,-52
2018-07-23T07:30:55.021Z,-53
2018-07-23T07:33:22.021Z,-52
2018-07-23T07:35:49.150Z,-53
2018-07-23T07:38:16.201Z,-52
2018-07-23T07:40:43.173Z,-53
2018-07-23T07:43:10.173Z,-52
2018-07-23T07:45:37.240Z,-52
2018-07-23T07:48:04.249Z,-53
2018-07-23T07:50:31.260Z,-52
2018-07-23T07:52:58.216Z,-52
2018-07-23T07:55:25.224Z,-52
2018-07-23T07:57:52.193Z,-53
2018-07-23T08:00:19.201Z,-52
2018-07-23T08:02:46.263Z,-53
2018-07-23T08:05:13.229Z,-52
2018-07-23T08:07:40.249Z,-53
2018-07-23T08:10:07.288Z,-54
2018-07-23T08:12:34.509Z,-53
2018-07-23T08:15:01.750Z,-52
2018-07-23T08:17:28.725Z,-52
2018-07-23T08:19:55.921Z,-53
2018-07-23T08:22:23.041Z,-52
2018-07-23T08:24:50.038Z,-52
2018-07-23T08:27:17.013Z,-53
2018-07-23T08:29:43.977Z,-52
2018-07-23T08:32:11.253Z,-54
2018-07-23T08:34:38.226Z,-52
2018-07-23T08:37:05.261Z,-53
2018-07-23T08:39:32.288Z,-53
2018-07-23T08:41:59.348Z,-53
2018-07-23T08:44:26.329Z,-53
2018-07-23T08:46:53.318Z,-53
2018-07-23T08:49:20.289Z,-53
2018-07-23T08:51:47.289Z,-54
2018-07-23T08:54:14.454Z,-54
2018-07-23T08:56:41.550Z,-54
2018-07-23T08:59:08.598Z,-53
2018-07-23T09:01:35.582Z,-54
2018-07-23T09:04:02.569Z,-52
2018-07-23T09:06:29.597Z,-53
2018-07-23T09:08:56.593Z,-52
2018-07-23T09:11:23.593Z,-53
2018-07-23T09:13:50.588Z,-53
2018-07-23T09:16:17.575Z,-55
2018-07-23T09:18:44.609Z,-54
2018-07-23T09:21:11.599Z,-53
2018-07-23T09:23:38.873Z,-53
2018-07-23T09:26:05.861Z,-53
2018-07-23T09:28:32.866Z,-53
2018-07-23T09:30:59.920Z,-53
2018-07-23T09:33:26.884Z,-53
2018-07-23T09:35:54.026Z,-53
2018-07-23T09:38:22.386Z,-52
2018-07-23T09:40:49.546Z,-53
2018-07-23T09:43:16.684Z,-53
2018-07-23T09:45:43.784Z,-52
2018-07-23T09:48:10.721Z,-54
2018-07-23T09:50:38.720Z,-52
2018-07-23T09:53:05.996Z,-52
2018-07-23T09:55:32.973Z,-52
2018-07-23T09:57:59.948Z,-52
2018-07-23T10:00:32.534Z,-52
2018-07-23T10:02:59.562Z,-52
2018-07-23T10:05:26.905Z,-52
2018-07-23T10:07:53.977Z,-52
2018-07-23T10:10:21.505Z,-52
2018-07-23T10:12:48.521Z,-52
2018-07-23T10:15:15.892Z,-52
2018-07-23T10:17:42.872Z,-52
2018-07-23T10:20:09.865Z,-53
2018-07-23T10:22:36.922Z,-54
2018-07-23T10:25:03.965Z,-53
2018-07-23T10:27:31.411Z,-53
2018-07-23T10:29:58.393Z,-53
2018-07-23T10:32:25.370Z,-52
2018-07-23T10:34:52.344Z,-52
2018-07-23T10:37:19.333Z,-52
2018-07-23T10:39:46.297Z,-52
2018-07-23T10:42:13.296Z,-53
2018-07-23T10:44:40.261Z,-52
2018-07-23T10:47:07.261Z,-52
2018-07-23T10:49:34.333Z,-52
2018-07-23T10:52:01.421Z,-55
2018-07-23T10:54:28.752Z,-55
2018-07-23T10:56:55.732Z,-53
2018-07-23T10:59:22.707Z,-53
2018-07-23T11:01:49.722Z,-52
2018-07-23T11:04:16.784Z,-52
2018-07-23T11:06:43.757Z,-52
2018-07-23T11:09:10.732Z,-54
2018-07-23T11:11:37.733Z,-54
2018-07-23T11:14:04.760Z,-54
2018-07-23T11:16:31.792Z,-54
2018-07-23T11:18:58.776Z,-53
2018-07-23T11:21:25.741Z,-53
2018-07-23T11:23:52.770Z,-53
2018-07-23T11:26:19.763Z,-53
2018-07-23T11:28:46.745Z,-54
2018-07-23T11:31:13.729Z,-53
2018-07-23T11:33:40.711Z,-53
2018-07-23T11:36:07.732Z,-54
2018-07-23T11:38:34.697Z,-53
2018-07-23T11:41:01.851Z,-53
2018-07-23T11:43:28.907Z,-52
2018-07-23T11:45:55.965Z,-54
2018-07-23T11:48:23.911Z,-54
2018-07-23T11:50:51.094Z,-54
2018-07-23T11:53:18.096Z,-53
2018-07-23T11:55:45.140Z,-52
2018-07-23T11:58:12.276Z,-54
2018-07-23T12:00:39.385Z,-53
2018-07-23T12:03:06.486Z,-53
2018-07-23T12:05:33.589Z,-54
2018-07-23T12:08:00.600Z,-54
2018-07-23T12:10:27.578Z,-53
2018-07-23T12:12:54.556Z,-53
2018-07-23T12:15:21.521Z,-53
2018-07-23T12:17:48.561Z,-55
2018-07-23T12:20:15.559Z,-54
2018-07-23T12:22:42.585Z,-53
2018-07-23T12:25:09.586Z,-53
2018-07-23T12:27:36.576Z,-53
2018-07-23T12:30:03.785Z,-52
2018-07-23T12:32:31.166Z,-52
2018-07-23T12:34:58.098Z,-53
2018-07-23T12:37:25.170Z,-53
2018-07-23T12:39:52.184Z,-53
2018-07-23T12:42:19.129Z,-52
2018-07-23T12:44:46.141Z,-53
2018-07-23T12:47:13.246Z,-53
2018-07-23T12:49:40.197Z,-53
2018-07-23T12:52:07.161Z,-53
2018-07-23T12:54:34.181Z,-53
2018-07-23T12:57:01.146Z,-54
2018-07-23T12:59:28.126Z,-53
2018-07-23T13:01:55.377Z,-52
2018-07-23T13:04:22.365Z,-53
2018-07-23T13:06:49.367Z,-53
2018-07-23T13:09:16.497Z,-53
2018-07-23T13:11:43.525Z,-52
2018-07-23T13:14:10.521Z,-53
2018-07-23T13:16:37.505Z,-52
2018-07-23T13:19:04.751Z,-52
2018-07-23T13:21:32.132Z,-53
2018-07-23T13:23:59.313Z,-53
2018-07-23T13:26:26.312Z,-52
2018-07-23T13:28:53.349Z,-52
2018-07-23T13:31:20.337Z,-53
2018-07-23T13:33:47.324Z,-53
2018-07-23T13:36:14.391Z,-53
2018-07-23T13:38:41.427Z,-53
2018-07-23T13:41:08.534Z,-53
2018-07-23T13:43:35.805Z,-53
2018-07-23T13:46:02.841Z,-53
2018-07-23T13:48:29.857Z,-54
2018-07-23T13:50:56.901Z,-54
2018-07-23T13:53:24.026Z,-53
2018-07-23T13:55:51.148Z,-52
2018-07-23T13:58:18.108Z,-53
2018-07-23T14:00:45.097Z,-54
2018-07-23T14:03:12.146Z,-53
2018-07-23T14:05:39.125Z,-54
2018-07-23T14:08:06.098Z,-53
2018-07-23T14:10:33.304Z,-52
2018-07-23T14:13:00.309Z,-54
2018-07-23T14:15:27.485Z,-53
2018-07-23T14:17:54.725Z,-53
2018-07-23T14:20:22.070Z,-52
2018-07-23T14:22:49.337Z,-53
2018-07-23T14:25:16.325Z,-53
2018-07-23T14:27:43.697Z,-53
2018-07-23T14:30:10.734Z,-53
2018-07-23T14:32:37.888Z,-52
2018-07-23T14:35:04.933Z,-53
2018-07-23T14:37:32.189Z,-52
2018-07-23T14:39:59.157Z,-54
2018-07-23T14:42:26.146Z,-55
2018-07-23T14:44:53.145Z,-54
2018-07-23T14:47:20.143Z,-53
2018-07-23T14:49:47.377Z,-53
2018-07-23T14:52:14.393Z,-54
2018-07-23T14:54:41.533Z,-54
2018-07-23T14:57:08.581Z,-53
2018-07-23T14:59:35.625Z,-53
2018-07-23T15:02:02.633Z,-53
2018-07-23T15:04:29.889Z,-53
2018-07-23T15:06:57.117Z,-53
2018-07-23T15:09:24.099Z,-53
2018-07-23T15:11:51.089Z,-53
2018-07-23T15:14:18.077Z,-54
2018-07-23T15:16:45.253Z,-53
2018-07-23T15:19:12.307Z,-53
2018-07-23T15:21:39.310Z,-53
2018-07-23T15:24:06.350Z,-50
2018-07-23T15:26:33.361Z,-49
2018-07-23T15:29:00.370Z,-50
2018-07-23T15:31:27.385Z,-49
2018-07-23T15:33:54.665Z,-49
2018-07-23T15:36:21.700Z,-47
2018-07-23T15:38:48.677Z,-47
2018-07-23T15:41:15.865Z,-48
2018-07-23T15:43:43.045Z,-47
2018-07-23T15:46:10.407Z,-47
2018-07-23T15:48:37.288Z,-46
2018-07-23T15:51:04.295Z,-47
2018-07-23T15:53:31.241Z,-46
2018-07-23T15:55:58.400Z,-46
2018-07-23T15:58:25.388Z,-47
2018-07-23T16:00:52.360Z,-47
2018-07-23T16:03:19.416Z,-47
2018-07-23T16:05:46.428Z,-46
2018-07-23T16:08:13.438Z,-46
2018-07-23T16:10:40.590Z,-45
2018-07-23T16:13:07.793Z,-46
2018-07-23T16:15:35.101Z,-45
2018-07-23T16:18:02.239Z,-46
2018-07-23T16:20:29.436Z,-46
2018-07-23T16:22:56.380Z,-46
2018-07-23T16:25:23.393Z,-46
2018-07-23T16:27:50.404Z,-46
2018-07-23T16:30:17.440Z,-46
2018-07-23T16:32:44.557Z,-46
2018-07-23T16:35:12.180Z,-46
2018-07-23T16:37:39.218Z,-46
2018-07-23T16:40:06.704Z,-46
2018-07-23T16:42:33.725Z,-47
2018-07-23T16:45:00.777Z,-47
2018-07-23T16:47:27.765Z,-49
2018-07-23T16:49:54.844Z,-47
2018-07-23T16:52:21.821Z,-48
2018-07-23T16:54:48.836Z,-46
2018-07-23T16:57:15.824Z,-48
2018-07-23T16:59:42.877Z,-47
2018-07-23T17:02:10.457Z,-47
2018-07-23T17:04:37.529Z,-46
2018-07-23T17:07:04.615Z,-48
2018-07-23T17:09:31.895Z,-47
2018-07-23T17:11:59.069Z,-47
2018-07-23T17:14:26.348Z,-47
2018-07-23T17:16:53.368Z,-47
2018-07-23T17:19:21.113Z,-47
2018-07-23T17:21:48.131Z,-47
2018-07-23T17:24:15.153Z,-47
2018-07-23T17:26:42.832Z,-47
2018-07-23T17:29:09.917Z,-47
2018-07-23T17:31:36.936Z,-47
2018-07-23T17:34:04.032Z,-47
2018-07-23T17:36:31.029Z,-48
2018-07-23T17:38:58.161Z,-47
2018-07-23T17:41:25.292Z,-48
2018-07-23T17:43:52.276Z,-48
2018-07-23T17:46:19.250Z,-48
2018-07-23T17:48:46.237Z,-48
2018-07-23T17:51:13.253Z,-48
2018-07-23T17:53:40.340Z,-48
2018-07-23T17:56:07.586Z,-48
2018-07-23T17:58:34.565Z,-48
2018-07-23T18:01:01.573Z,-48
2018-07-23T18:03:28.787Z,-47
2018-07-23T18:05:55.924Z,-47
2018-07-23T18:08:22.991Z,-48
2018-07-23T18:10:49.960Z,-49
2018-07-23T18:13:16.971Z,-49
2018-07-23T18:15:44.325Z,-47
2018-07-23T18:18:11.341Z,-47
2018-07-23T18:20:38.341Z,-47
2018-07-23T18:23:05.476Z,-47
2018-07-23T18:25:32.453Z,-47
2018-07-23T18:27:59.445Z,-48
2018-07-23T18:30:26.624Z,-48
2018-07-23T18:32:55.585Z,-48
2018-07-23T18:35:25.213Z,-48
2018-07-23T18:37:52.288Z,-47
2018-07-23T18:40:19.400Z,-47
2018-07-23T18:42:46.448Z,-49
2018-07-23T18:45:13.416Z,-48
2018-07-23T18:47:40.390Z,-48
2018-07-23T18:50:07.409Z,-47
2018-07-23T18:52:34.467Z,-48
2018-07-23T18:55:01.689Z,-47
2018-07-23T18:57:28.738Z,-47
2018-07-23T18:59:56.051Z,-47
2018-07-23T19:02:23.068Z,-47
2018-07-23T19:04:50.224Z,-50
2018-07-23T19:07:17.356Z,-47
2018-07-23T19:09:44.405Z,-47
2018-07-23T19:12:11.736Z,-47
2018-07-23T19:14:38.748Z,-47
2018-07-23T19:17:07.076Z,-47
2018-07-23T19:19:34.044Z,-47
2018-07-23T19:22:01.096Z,-49
2018-07-23T19:24:28.069Z,-48
2018-07-23T19:26:55.022Z,-47
2018-07-23T19:29:22.149Z,-47
2018-07-23T19:31:49.100Z,-47
2018-07-23T19:34:16.164Z,-48
2018-07-23T19:36:43.183Z,-47
2018-07-23T19:39:11.721Z,-47
2018-07-23T19:41:39.011Z,-47
2018-07-23T19:44:06.534Z,-47
2018-07-23T19:46:33.565Z,-47
2018-07-23T19:49:00.565Z,-47
2018-07-23T19:51:27.585Z,-48
2018-07-23T19:53:54.956Z,-48
2018-07-23T19:56:21.963Z,-47
2018-07-23T19:58:49.637Z,-47
2018-07-23T20:01:16.764Z,-47
2018-07-23T20:03:44.044Z,-47
2018-07-23T20:06:11.040Z,-47
2018-07-23T20:08:38.038Z,-47
2018-07-23T20:11:05.249Z,-47
2018-07-23T20:13:32.441Z,-47
2018-07-23T20:15:59.437Z,-47
2018-07-23T20:18:26.455Z,-48
2018-07-23T20:20:53.465Z,-47
2018-07-23T20:23:20.516Z,-50
2018-07-23T20:25:47.542Z,-47
2018-07-23T20:28:14.721Z,-48
2018-07-23T20:30:41.696Z,-48
2018-07-23T20:33:08.737Z,-47
2018-07-23T20:35:35.820Z,-47
2018-07-23T20:38:02.818Z,-47
2018-07-23T20:40:30.148Z,-47
2018-07-23T20:42:57.538Z,-47
2018-07-23T20:45:24.527Z,-47
2018-07-23T20:47:51.564Z,-48
2018-07-23T20:50:18.564Z,-48
2018-07-23T20:52:45.650Z,-48
2018-07-23T20:55:12.697Z,-48
2018-07-23T20:57:39.688Z,-47
2018-07-23T21:00:08.013Z,-48
2018-07-23T21:02:35.025Z,-47
2018-07-23T21:05:02.058Z,-47
2018-07-23T21:07:29.326Z,-47
2018-07-23T21:09:56.482Z,-48
2018-07-23T21:12:23.485Z,-47
2018-07-23T21:14:50.503Z,-48
2018-07-23T21:17:17.584Z,-48
2018-07-23T21:19:44.919Z,-47
2018-07-23T21:22:11.876Z,-47
2018-07-23T21:24:38.879Z,-47
2018-07-23T21:27:05.892Z,-48
2018-07-23T21:29:32.869Z,-48
2018-07-23T21:32:00.248Z,-47
2018-07-23T21:34:27.253Z,-48
2018-07-23T21:36:55.593Z,-47
2018-07-23T21:39:22.580Z,-48
2018-07-23T21:41:49.559Z,-47
2018-07-23T21:44:16.548Z,-47
2018-07-23T21:46:43.561Z,-47
2018-07-23T21:49:10.545Z,-47
2018-07-23T21:51:37.648Z,-47
2018-07-23T21:54:04.938Z,-48
2018-07-23T21:56:31.900Z,-48
2018-07-23T21:58:58.886Z,-47
2018-07-23T22:01:25.906Z,-48
2018-07-23T22:03:52.933Z,-48
2018-07-23T22:06:23.601Z,-48
2018-07-23T22:08:52.069Z,-47
2018-07-23T22:11:19.153Z,-47
2018-07-23T22:13:46.133Z,-47
2018-07-23T22:16:13.245Z,-47
2018-07-23T22:18:40.198Z,-48
2018-07-23T22:21:07.621Z,-48
2018-07-23T22:23:34.573Z,-48
2018-07-23T22:26:01.586Z,-47
2018-07-23T22:28:28.576Z,-49
2018-07-23T22:30:55.549Z,-49
2018-07-23T22:33:22.531Z,-49
2018-07-23T22:35:49.568Z,-49
2018-07-23T22:38:16.632Z,-48
2018-07-23T22:40:43.806Z,-49
2018-07-23T22:43:10.805Z,-49
2018-07-23T22:45:38.005Z,-49
2018-07-23T22:48:05.034Z,-48
2018-07-23T22:50:31.996Z,-49
2018-07-23T22:52:58.968Z,-50
2018-07-23T22:55:25.965Z,-49
2018-07-23T22:57:52.948Z,-47
2018-07-23T23:00:19.953Z,-47
2018-07-23T23:02:47.512Z,-48
2018-07-23T23:05:14.565Z,-48
2018-07-23T23:07:41.553Z,-47
2018-07-23T23:10:08.549Z,-47
2018-07-23T23:12:35.573Z,-48
2018-07-23T23:15:02.721Z,-47
2018-07-23T23:17:29.698Z,-47
2018-07-23T23:19:56.692Z,-47
2018-07-23T23:22:24.533Z,-47
2018-07-23T23:24:51.492Z,-49
2018-07-23T23:27:18.637Z,-47
2018-07-23T23:29:45.635Z,-47
2018-07-23T23:32:12.721Z,-48
2018-07-23T23:34:39.753Z,-47
2018-07-23T23:37:06.733Z,-47
2018-07-23T23:39:33.717Z,-47
2018-07-23T23:42:00.715Z,-47
2018-07-23T23:44:27.693Z,-47
2018-07-23T23:46:54.665Z,-47
2018-07-23T23:49:21.692Z,-47
2018-07-23T23:51:48.656Z,-47
2018-07-23T23:54:15.708Z,-47
2018-07-23T23:56:42.681Z,-47
2018-07-23T23:59:09.724Z,-47
